Photometre #246[Polarized_P] Barcelona AOT

File : 20200926_246.hum

26/09/2020,06:31:43,TEMP=13.0,BA=5.64,STAT.A=Abs.,ExtBa=14.14
26/09/2020,06:35:09,TEMP=13.1,BA=5.64,STAT.A=Abs.,ExtBa=13.96
26/09/2020,06:39:11,TEMP=13.2,BA=5.64,STAT.A=Abs.,ExtBa=13.85
26/09/2020,06:43:58,TEMP=13.4,BA=5.64,STAT.A=Abs.,ExtBa=13.83
26/09/2020,06:49:45,TEMP=13.3,BA=5.64,STAT.A=Abs.,ExtBa=13.83
26/09/2020,06:56:52,TEMP=13.5,BA=5.64,STAT.A=Abs.,ExtBa=13.85
26/09/2020,07:05:53,TEMP=13.8,BA=5.64,STAT.B=Abs.,ExtBa=13.90
26/09/2020,07:12:28,TEMP=14.3,BA=5.64,STAT.A=Abs.,ExtBa=13.18
26/09/2020,07:15:02,TEMP=14.3,BA=5.64,STAT.A=Abs.,ExtBa=13.32
26/09/2020,07:20:29,TEMP=14.4,BA=5.64,STAT.A=Abs.,ExtBa=13.50
26/09/2020,07:26:41,TEMP=14.6,BA=5.64,STAT.A=Abs.,ExtBa=13.57
26/09/2020,07:33:48,TEMP=14.8,BA=5.64,STAT.C=Abs.,ExtBa=13.63
26/09/2020,07:46:46,TEMP=16.3,BA=5.64,STAT.A=Abs.,ExtBa=13.31
26/09/2020,07:51:53,TEMP=15.3,BA=5.64,STAT.A=Abs.,ExtBa=13.55
26/09/2020,08:03:39,TEMP=15.4,BA=5.64,STAT.A=Abs.,ExtBa=13.71
26/09/2020,08:18:08,TEMP=16.1,BA=5.64,STAT.A=Abs.,ExtBa=13.82
26/09/2020,08:36:33,TEMP=17.6,BA=5.64,STAT.B=Abs.,ExtBa=13.82
26/09/2020,08:43:21,TEMP=18.5,BA=5.64,STAT.F
26/09/2020,08:59:03,TEMP=19.9,BA=5.64,STAT.b=Abs.
26/09/2020,09:13:11,TEMP=20.0,BA=5.64,STAT.D=Abs.,ExtBa=13.69
26/09/2020,09:28:11,TEMP=20.9,BA=5.64,STAT.D=Abs.,ExtBa=13.75
26/09/2020,09:43:13,TEMP=21.6,BA=5.64,STAT.F
26/09/2020,09:58:11,TEMP=21.3,BA=5.60,STAT.D=Abs.,ExtBa=13.36
26/09/2020,10:13:12,TEMP=21.4,BA=5.64,STAT.D=Abs.,ExtBa=13.67
26/09/2020,10:28:11,TEMP=22.9,BA=5.64,STAT.D=Abs.,ExtBa=13.73
26/09/2020,10:43:13,TEMP=23.5,BA=5.64,STAT.F
26/09/2020,10:58:11,TEMP=22.6,BA=5.56,STAT.D=Abs.,ExtBa=13.37
26/09/2020,11:13:11,TEMP=21.8,BA=5.64,STAT.D=Abs.,ExtBa=13.68
26/09/2020,11:28:11,TEMP=21.8,BA=5.64,STAT.D=Abs.,ExtBa=13.72
26/09/2020,11:43:13,TEMP=21.8,BA=5.64,STAT.F
26/09/2020,11:58:14,TEMP=23.3,BA=5.56,STAT.D=Abs.,ExtBa=13.43
26/09/2020,12:13:11,TEMP=23.2,BA=5.64,STAT.D=Abs.,ExtBa=13.64
26/09/2020,12:28:11,TEMP=24.1,BA=5.64,STAT.D=Abs.,ExtBa=13.70
26/09/2020,12:43:13,TEMP=24.1,BA=5.64,STAT.F
26/09/2020,12:58:10,TEMP=24.2,BA=5.52,STAT.D=Abs.,ExtBa=13.46
26/09/2020,13:13:10,TEMP=23.3,BA=5.64,STAT.D=Abs.,ExtBa=13.67
26/09/2020,13:28:05,TEMP=23.3,BA=5.64,STAT.b=Abs.
26/09/2020,13:43:11,TEMP=23.3,BA=5.64,STAT.F
26/09/2020,13:58:13,TEMP=24.2,BA=5.52,STAT.b=Abs.
26/09/2020,14:13:11,TEMP=23.5,BA=5.64,STAT.D=Abs.,ExtBa=13.68
26/09/2020,14:28:12,TEMP=23.8,BA=5.64,STAT.D=Abs.,ExtBa=13.74
26/09/2020,14:43:11,TEMP=23.8,BA=5.64,STAT.F
26/09/2020,14:49:51,TEMP=23.7,BA=5.64,STAT.B=Abs.,ExtBa=13.77
26/09/2020,15:08:16,TEMP=22.3,BA=5.64,STAT.A=Abs.,ExtBa=13.76
26/09/2020,15:22:45,TEMP=21.6,BA=5.64,STAT.A=Abs.,ExtBa=13.75
26/09/2020,15:34:31,TEMP=22.8,BA=5.64,STAT.A=Abs.,ExtBa=13.75
26/09/2020,15:44:18,TEMP=23.7,BA=5.64,STAT.A=Abs.,ExtBa=13.73
26/09/2020,15:52:36,TEMP=24.0,BA=5.64,STAT.C=Abs.,ExtBa=13.74
26/09/2020,16:05:37,TEMP=25.1,BA=5.52,STAT.A=Abs.,ExtBa=13.35
26/09/2020,16:07:23,TEMP=24.7,BA=5.52,STAT.A=Abs.,ExtBa=13.37
26/09/2020,16:11:22,TEMP=24.2,BA=5.64,STAT.A=Abs.,ExtBa=13.50
26/09/2020,16:16:12,TEMP=24.3,BA=5.64,STAT.A=Abs.,ExtBa=13.56
26/09/2020,16:20:31,TEMP=24.5,BA=5.64,STAT.B=Abs.,ExtBa=13.58
26/09/2020,16:29:30,TEMP=24.3,BA=5.64,STAT.A=Abs.,ExtBa=13.42
26/09/2020,16:36:37,TEMP=24.3,BA=5.56,STAT.A=Abs.,ExtBa=13.58
26/09/2020,16:42:24,TEMP=24.2,BA=5.64,STAT.A=Abs.,ExtBa=13.62
26/09/2020,16:47:11,TEMP=24.0,BA=5.64,STAT.A=Abs.,ExtBa=13.63
26/09/2020,16:51:13,TEMP=23.8,BA=5.64,STAT.A=Abs.,ExtBa=13.63
26/09/2020,16:54:39,TEMP=23.6,BA=5.64,STAT.A=Abs.,ExtBa=13.61